createdAt,value
2018-02-04T01:59:12.198Z,8.93
2018-02-04T02:02:03.116Z,10.63
2018-02-04T02:10:40.020Z,12.83
2018-02-04T02:13:10.497Z,11.47
2018-02-04T02:18:19.211Z,12.30
2018-02-04T02:20:49.156Z,12.17
2018-02-04T02:23:19.021Z,11.57
2018-02-04T02:25:48.939Z,12.40
2018-02-04T02:28:18.843Z,11.90
2018-02-04T02:30:48.738Z,12.70
2018-02-04T02:33:18.594Z,13.07
2018-02-04T02:35:48.506Z,12.63
2018-02-04T02:38:18.461Z,11.63
2018-02-04T02:40:48.344Z,11.70
2018-02-04T02:43:18.289Z,11.10
2018-02-04T02:45:48.168Z,13.50
2018-02-04T02:48:18.048Z,12.30
2018-02-04T02:50:48.060Z,10.90
2018-02-04T02:53:17.940Z,12.63
2018-02-04T02:55:47.998Z,12.80
2018-02-04T02:58:17.864Z,11.27
2018-02-04T03:00:47.710Z,10.63
2018-02-04T03:03:17.590Z,12.00
2018-02-04T03:05:47.448Z,10.93
2018-02-04T03:08:17.311Z,12.10
2018-02-04T03:10:47.563Z,11.00
2018-02-04T03:13:17.425Z,11.43
2018-02-04T03:15:47.274Z,11.43
2018-02-04T03:18:17.150Z,11.83
2018-02-04T03:20:46.999Z,11.90
2018-02-04T03:23:16.874Z,11.60
2018-02-04T03:25:46.752Z,11.47
2018-02-04T03:28:16.603Z,10.50
2018-02-04T03:30:46.700Z,10.43
2018-02-04T03:33:16.565Z,10.73
2018-02-04T03:35:46.412Z,10.30
2018-02-04T03:38:16.287Z,10.90
2018-02-04T03:40:46.408Z,10.30
2018-02-04T03:43:16.270Z,11.40
2018-02-04T03:45:46.118Z,12.37
2018-02-04T03:48:15.963Z,12.20
2018-02-04T03:50:45.868Z,11.97
2018-02-04T03:53:15.860Z,11.67
2018-02-04T03:55:45.705Z,11.07
2018-02-04T03:58:15.576Z,11.87
2018-02-04T04:00:46.020Z,10.80
2018-02-04T04:03:15.916Z,10.77
2018-02-04T04:05:45.755Z,11.13
2018-02-04T04:08:15.643Z,11.43
2018-02-04T04:10:46.251Z,10.80
2018-02-04T04:13:16.166Z,10.57
2018-02-04T04:15:46.040Z,11.90
2018-02-04T04:18:15.920Z,11.37
2018-02-04T04:20:46.020Z,9.57
2018-02-04T04:23:15.924Z,10.00
2018-02-04T04:25:45.761Z,11.50
2018-02-04T04:28:15.629Z,12.00
2018-02-04T04:30:45.581Z,11.37
2018-02-04T04:33:15.440Z,10.97
2018-02-04T04:35:45.293Z,10.90
2018-02-04T04:38:15.182Z,10.60
2018-02-04T04:40:45.031Z,11.17
2018-02-04T04:43:14.855Z,10.23
2018-02-04T04:45:44.708Z,12.20
2018-02-04T04:48:14.554Z,12.80
2018-02-04T04:50:44.418Z,11.90
2018-02-04T04:53:14.304Z,11.20
2018-02-04T04:55:44.157Z,11.70
2018-02-04T04:58:13.981Z,11.53
2018-02-04T05:00:43.835Z,12.07
2018-02-04T05:03:13.807Z,11.93
2018-02-04T05:05:43.671Z,11.60
2018-02-04T05:08:13.548Z,11.33
2018-02-04T05:10:43.404Z,11.37
2018-02-04T05:13:13.257Z,12.87
2018-02-04T05:15:43.093Z,11.60
2018-02-04T05:18:12.972Z,11.60
2018-02-04T05:20:42.816Z,11.40
2018-02-04T05:23:12.690Z,12.80
2018-02-04T05:25:42.884Z,12.70
2018-02-04T05:28:13.312Z,13.00
2018-02-04T05:30:43.201Z,12.33
2018-02-04T05:33:13.082Z,11.20
2018-02-04T05:35:42.969Z,12.47
2018-02-04T05:38:13.053Z,13.43
2018-02-04T05:40:43.033Z,11.37
2018-02-04T05:43:12.926Z,11.17
2018-02-04T05:45:42.794Z,13.17
2018-02-04T05:48:13.422Z,12.10
2018-02-04T05:50:43.314Z,12.20
2018-02-04T05:53:13.190Z,11.13
2018-02-04T05:55:43.069Z,12.10
2018-02-04T05:58:12.912Z,12.23
2018-02-04T06:00:42.776Z,11.33
2018-02-04T06:03:12.646Z,12.83
2018-02-04T06:05:42.525Z,10.90
2018-02-04T06:08:12.380Z,8.83
2018-02-04T06:10:42.248Z,12.00
2018-02-04T06:13:12.093Z,12.03
2018-02-04T06:15:41.989Z,7.93
2018-02-04T06:18:12.421Z,11.10
2018-02-04T06:20:42.389Z,12.33
2018-02-04T06:23:12.762Z,12.20
2018-02-04T06:25:42.677Z,12.07
2018-02-04T06:28:12.976Z,14.53
2018-02-04T06:30:42.882Z,12.57
2018-02-04T06:33:12.739Z,13.53
2018-02-04T06:35:42.617Z,13.70
2018-02-04T06:38:12.454Z,11.23
2018-02-04T06:40:42.361Z,13.20
2018-02-04T06:43:12.202Z,11.53
2018-02-04T06:45:42.058Z,14.40
2018-02-04T06:48:11.898Z,13.57
2018-02-04T06:50:42.149Z,13.00
2018-02-04T06:53:12.079Z,13.00
2018-02-04T06:55:41.983Z,13.40
2018-02-04T06:58:11.869Z,14.40
2018-02-04T07:00:41.693Z,13.17
2018-02-04T07:03:11.595Z,13.40
2018-02-04T07:05:41.567Z,13.83
2018-02-04T07:08:11.449Z,13.03
2018-02-04T07:10:41.306Z,13.47
2018-02-04T07:13:11.255Z,12.93
2018-02-04T07:15:41.097Z,12.73
2018-02-04T07:18:10.998Z,12.00
2018-02-04T07:20:40.850Z,11.10
2018-02-04T07:23:10.700Z,10.53
2018-02-04T07:25:40.642Z,13.00
2018-02-04T07:28:10.491Z,13.13
2018-02-04T07:30:40.397Z,12.13
2018-02-04T07:33:10.234Z,13.23
2018-02-04T07:35:40.100Z,12.57
2018-02-04T07:38:09.945Z,9.60
2018-02-04T07:40:39.795Z,9.13
2018-02-04T07:43:09.675Z,9.67
2018-02-04T07:45:39.534Z,9.60
2018-02-04T07:48:09.393Z,8.90
2018-02-04T07:50:39.261Z,10.63
2018-02-04T07:53:09.289Z,8.00
2018-02-04T07:55:39.326Z,8.60
2018-02-04T07:58:09.177Z,8.70
2018-02-04T08:00:39.054Z,8.60
2018-02-04T08:03:08.907Z,8.63
2018-02-04T08:05:38.740Z,8.90
2018-02-04T08:08:08.634Z,6.50
2018-02-04T08:10:38.572Z,7.33
2018-02-04T08:13:08.414Z,7.97
2018-02-04T08:15:38.300Z,7.00
2018-02-04T08:18:08.148Z,6.03
2018-02-04T08:20:38.057Z,7.70
2018-02-04T08:23:07.972Z,6.80
2018-02-04T08:25:38.067Z,8.87
2018-02-04T08:28:08.084Z,8.30
2018-02-04T08:30:37.978Z,7.50
2018-02-04T08:33:07.840Z,8.80
2018-02-04T08:35:37.711Z,8.33
2018-02-04T08:38:07.553Z,7.50
2018-02-04T08:40:37.464Z,7.53
2018-02-04T08:43:07.322Z,7.37
2018-02-04T08:45:37.142Z,6.90
2018-02-04T08:48:07.009Z,7.27
2018-02-04T08:50:36.855Z,7.70
2018-02-04T09:02:22.344Z,8.60
2018-02-04T09:05:31.757Z,8.07
2018-02-04T09:11:45.261Z,9.53
2018-02-04T09:14:15.149Z,9.03
2018-02-04T09:16:45.012Z,8.20
2018-02-04T09:19:14.878Z,7.20
2018-02-04T09:21:44.794Z,8.40
2018-02-04T09:24:14.681Z,8.10
2018-02-04T09:26:44.540Z,8.83
2018-02-04T09:29:14.436Z,8.00
2018-02-04T09:31:44.328Z,8.20
2018-02-04T09:34:14.279Z,7.70
2018-02-04T09:36:44.129Z,8.67
2018-02-04T09:39:13.991Z,8.00
2018-02-04T09:41:43.879Z,8.40
2018-02-04T09:44:13.814Z,9.20
2018-02-04T09:46:43.715Z,7.33
2018-02-04T09:49:13.568Z,6.70
2018-02-04T09:51:43.493Z,9.00
2018-02-04T09:54:13.342Z,8.60
2018-02-04T10:08:09.695Z,10.27
2018-02-04T10:19:22.490Z,9.20
2018-02-04T10:21:52.521Z,9.90
2018-02-04T10:36:05.771Z,10.60
2018-02-04T10:38:36.597Z,9.93
2018-02-04T10:41:18.533Z,10.87
2018-02-04T10:43:48.909Z,10.00
2018-02-04T10:46:19.230Z,11.60
2018-02-04T10:48:49.493Z,13.00
2018-02-04T10:51:25.120Z,11.00
2018-02-04T10:53:55.033Z,12.00
2018-02-04T10:56:24.947Z,12.27
2018-02-04T11:01:31.004Z,12.10
2018-02-04T11:04:01.059Z,13.47
2018-02-04T11:06:31.328Z,12.60
2018-02-04T11:09:01.281Z,13.80
2018-02-04T11:11:31.249Z,13.77
2018-02-04T11:14:01.168Z,14.43
2018-02-04T11:16:31.024Z,13.00
2018-02-04T11:19:00.884Z,13.60
2018-02-04T11:21:30.940Z,12.60
2018-02-04T11:24:01.246Z,13.43
2018-02-04T11:26:33.811Z,12.80
2018-02-04T11:29:20.343Z,14.27
2018-02-04T11:37:35.288Z,12.13
2018-02-04T11:40:25.904Z,11.00
2018-02-04T11:42:56.620Z,12.60
2018-02-04T11:52:26.232Z,11.77
2018-02-04T11:57:43.835Z,9.67
2018-02-04T12:00:21.677Z,8.50
2018-02-04T12:31:14.816Z,6.27
2018-02-04T12:43:30.681Z,8.23
2018-02-04T12:46:11.558Z,6.67
2018-02-04T12:51:33.720Z,7.20
2018-02-04T12:54:03.926Z,7.77
2018-02-04T12:56:34.289Z,7.77
2018-02-04T12:59:04.688Z,6.73
2018-02-04T13:01:34.625Z,7.80
2018-02-04T13:04:04.841Z,8.33
2018-02-04T13:06:34.760Z,8.00
2018-02-04T13:09:05.233Z,9.73
2018-02-04T13:11:35.121Z,6.17
2018-02-04T13:14:05.429Z,8.00
2018-02-04T13:16:36.184Z,6.60
2018-02-04T13:19:06.447Z,7.00
2018-02-04T13:21:36.444Z,4.50
2018-02-04T13:24:06.759Z,6.50
2018-02-04T13:26:36.684Z,6.33
2018-02-04T13:29:07.150Z,7.47
2018-02-04T13:31:38.217Z,7.20
2018-02-04T13:34:08.527Z,7.30
2018-02-04T13:36:38.583Z,7.00
2018-02-04T13:39:08.865Z,7.67
2018-02-04T13:41:38.734Z,7.50
2018-02-04T13:44:08.968Z,8.10
2018-02-04T13:46:38.804Z,6.73
2018-02-04T13:49:09.109Z,6.90
2018-02-04T13:51:39.007Z,7.93
2018-02-04T13:54:09.809Z,7.33
2018-02-04T13:56:39.687Z,7.10
2018-02-04T13:59:10.584Z,7.00
2018-02-04T14:01:40.656Z,7.00
2018-02-04T14:04:10.913Z,6.70
2018-02-04T14:09:21.487Z,7.57
2018-02-04T14:11:52.899Z,8.37
2018-02-04T14:14:25.340Z,5.07
2018-02-04T14:17:01.540Z,7.97
2018-02-04T14:19:31.883Z,7.83
2018-02-04T14:22:04.296Z,8.07
2018-02-04T14:24:35.463Z,8.23
2018-02-04T14:29:42.029Z,7.60
2018-02-04T14:32:11.906Z,5.00
2018-02-04T14:34:42.215Z,8.20
2018-02-04T14:37:13.036Z,7.10
2018-02-04T14:39:44.688Z,6.70
2018-02-04T14:42:16.226Z,7.60
2018-02-04T14:44:47.009Z,8.80
2018-02-04T14:47:17.318Z,7.60
2018-02-04T14:49:47.721Z,7.73
2018-02-04T14:52:17.582Z,8.77
2018-02-04T14:54:47.780Z,8.37
2018-02-04T14:57:17.747Z,9.00
2018-02-04T14:59:48.039Z,9.87
2018-02-04T15:02:18.154Z,9.10
2018-02-04T15:04:49.210Z,7.20
2018-02-04T15:07:23.130Z,7.33
2018-02-04T15:09:53.371Z,7.60
2018-02-04T15:12:25.158Z,7.07
2018-02-04T15:14:56.647Z,9.60
2018-02-04T15:17:26.716Z,7.50
2018-02-04T15:19:57.609Z,9.77
2018-02-04T15:22:27.515Z,7.70
2018-02-04T15:27:52.941Z,7.27
2018-02-04T15:30:23.274Z,6.53
2018-02-04T15:33:01.222Z,9.87
2018-02-04T15:35:38.525Z,6.10
2018-02-04T15:38:08.934Z,10.00
2018-02-04T15:40:39.561Z,8.97
2018-02-04T15:43:09.456Z,10.27
2018-02-04T15:45:39.866Z,10.20
2018-02-04T15:48:09.846Z,11.00
2018-02-04T15:50:40.243Z,9.27
2018-02-04T15:53:10.718Z,9.53
2018-02-04T15:55:41.245Z,10.20
2018-02-04T15:58:11.365Z,9.10
2018-02-04T16:00:41.620Z,11.43
2018-02-04T16:03:11.529Z,9.60
2018-02-04T16:05:42.833Z,11.57
2018-02-04T16:08:13.337Z,12.80
2018-02-04T16:10:44.044Z,9.87
2018-02-04T16:13:14.895Z,9.83
2018-02-04T16:18:40.143Z,8.47
2018-02-04T16:21:15.391Z,8.33
2018-02-04T16:23:45.561Z,10.57
2018-02-04T16:26:21.824Z,10.10
2018-02-04T16:31:34.918Z,12.63
2018-02-04T16:34:07.001Z,11.30
2018-02-04T16:36:37.518Z,11.07
2018-02-04T16:47:51.818Z,13.10
2018-02-04T17:44:01.910Z,11.87
2018-02-04T17:46:32.170Z,10.20
2018-02-04T17:49:03.431Z,12.07
2018-02-04T17:51:36.381Z,12.40
2018-02-04T17:54:12.499Z,12.27
2018-02-04T17:56:48.040Z,12.60
2018-02-04T18:02:26.832Z,10.87
2018-02-04T18:08:29.454Z,12.20
2018-02-04T18:14:03.573Z,12.10
2018-02-04T18:16:36.012Z,15.93
2018-02-04T18:19:08.972Z,12.63
2018-02-04T18:21:44.436Z,11.13
2018-02-04T18:24:16.944Z,12.80
2018-02-04T18:26:48.281Z,13.30
2018-02-04T18:29:22.113Z,13.00
2018-02-04T18:31:54.605Z,13.97
2018-02-04T18:34:24.811Z,13.60
2018-02-04T18:36:55.337Z,10.23
2018-02-04T18:39:25.302Z,13.07
2018-02-04T18:41:55.924Z,11.00
2018-02-04T18:44:25.805Z,7.20
2018-02-04T18:46:56.031Z,8.80
2018-02-04T18:52:31.116Z,7.80
2018-02-04T18:55:01.967Z,8.47
2018-02-04T18:57:32.267Z,9.47
2018-02-04T19:00:03.371Z,9.67
2018-02-04T19:02:34.400Z,9.60
2018-02-04T19:05:05.311Z,7.40
2018-02-04T19:07:36.496Z,10.77
2018-02-04T19:10:07.042Z,9.70
2018-02-04T19:12:38.126Z,9.67
2018-02-04T19:15:08.154Z,10.70
2018-02-04T19:17:40.932Z,10.20
2018-02-04T19:20:12.510Z,9.77
2018-02-04T19:22:44.432Z,9.93
2018-02-04T19:25:14.716Z,11.10
2018-02-04T19:27:45.168Z,8.83
2018-02-04T19:30:15.309Z,6.20
2018-02-04T19:32:46.730Z,9.50
2018-02-04T19:35:16.755Z,10.27
2018-02-04T19:37:47.132Z,9.10
2018-02-04T19:40:17.244Z,9.27
2018-02-04T19:42:47.855Z,8.87
2018-02-04T19:45:18.749Z,10.47
2018-02-04T19:47:49.265Z,6.17
2018-02-04T19:50:19.383Z,9.50
2018-02-04T19:52:49.825Z,9.63
2018-02-04T19:55:19.804Z,8.50
2018-02-04T19:57:50.428Z,9.47
2018-02-04T20:00:20.462Z,9.53
2018-02-04T20:02:52.676Z,8.13
2018-02-04T20:05:24.022Z,8.60
2018-02-04T20:08:03.497Z,8.23
2018-02-04T20:10:36.106Z,4.23
2018-02-04T20:13:07.804Z,9.00
2018-02-04T20:15:37.810Z,8.87
2018-02-04T20:18:08.075Z,6.97
2018-02-04T20:20:38.103Z,8.43
2018-02-04T20:23:08.775Z,8.33
2018-02-04T20:25:40.260Z,8.60
2018-02-04T20:28:10.807Z,10.53
2018-02-04T20:30:40.981Z,9.60
2018-02-04T20:33:22.935Z,8.80
2018-02-04T20:35:52.907Z,9.27
2018-02-04T20:38:24.103Z,8.97
2018-02-04T20:40:54.481Z,9.67
2018-02-04T20:43:24.845Z,7.40
2018-02-04T20:45:54.867Z,9.03
2018-02-04T20:48:25.348Z,9.20
2018-02-04T20:50:55.329Z,7.77
2018-02-04T20:53:25.781Z,9.17
2018-02-04T20:55:56.211Z,10.80
2018-02-04T20:58:26.761Z,8.90
2018-02-04T21:00:56.884Z,10.53
2018-02-04T21:03:27.354Z,10.13
2018-02-04T21:05:57.508Z,11.10
2018-02-04T21:08:27.845Z,8.47
2018-02-04T21:10:57.828Z,8.67
2018-02-04T21:13:28.034Z,9.50
2018-02-04T21:15:58.853Z,10.83
2018-02-04T21:18:29.279Z,8.73
2018-02-04T21:20:59.404Z,7.90
2018-02-04T21:23:29.970Z,7.93
2018-02-04T21:26:01.277Z,8.37
2018-02-04T21:28:32.386Z,8.50
2018-02-04T21:31:02.771Z,8.87
2018-02-04T21:33:33.295Z,8.30
2018-02-04T21:36:04.840Z,9.50
2018-02-04T21:38:35.659Z,7.80
2018-02-04T21:41:06.517Z,8.00
2018-02-04T21:43:37.293Z,8.47
2018-02-04T21:46:08.435Z,7.73
2018-02-04T21:48:39.408Z,8.80
2018-02-04T21:51:09.645Z,8.63
2018-02-04T21:53:40.290Z,9.00
2018-02-04T21:56:10.353Z,9.93
2018-02-04T21:58:40.839Z,6.03
2018-02-04T22:01:10.904Z,7.90
2018-02-04T22:03:41.388Z,8.60
2018-02-04T22:06:12.037Z,7.83
2018-02-04T22:08:42.860Z,7.40
2018-02-04T22:11:14.045Z,7.97
2018-02-04T22:13:44.608Z,7.23
2018-02-04T22:16:14.768Z,8.10
2018-02-04T22:18:45.155Z,7.37
2018-02-04T22:21:15.503Z,7.47
2018-02-04T22:23:46.070Z,7.70
2018-02-04T22:26:16.163Z,7.50
2018-02-04T22:28:46.387Z,6.97
2018-02-04T22:31:17.167Z,6.07
2018-02-04T22:33:47.494Z,5.33
2018-02-04T22:36:17.456Z,6.20
2018-02-04T22:41:53.859Z,4.83
2018-02-04T22:44:23.984Z,5.30
2018-02-04T22:46:54.625Z,4.03
2018-02-04T22:49:27.970Z,4.57
2018-02-04T22:52:01.514Z,4.50
2018-02-04T22:54:31.426Z,4.10
2018-02-04T22:57:02.100Z,5.47
2018-02-04T22:59:32.133Z,5.33
2018-02-04T23:02:02.654Z,4.80
2018-02-04T23:04:32.496Z,6.10
2018-02-04T23:07:02.793Z,5.30
2018-02-04T23:09:32.628Z,6.30
2018-02-04T23:12:02.920Z,4.03
2018-02-04T23:14:33.587Z,4.87
2018-02-04T23:17:03.841Z,5.57
2018-02-04T23:19:33.686Z,6.50
2018-02-04T23:22:11.949Z,5.87
2018-02-04T23:24:41.819Z,6.43
2018-02-04T23:27:12.049Z,6.57
2018-02-04T23:29:41.913Z,5.27
2018-02-04T23:32:12.166Z,6.97
2018-02-04T23:34:42.043Z,6.13
2018-02-04T23:37:11.909Z,5.10
2018-02-04T23:39:42.108Z,6.17
2018-02-04T23:42:12.819Z,4.60
2018-02-04T23:44:43.103Z,5.27
2018-02-04T23:47:13.047Z,5.00
2018-02-04T23:49:43.553Z,5.30
2018-02-04T23:52:13.495Z,4.13
2018-02-04T23:54:44.068Z,4.50
2018-02-04T23:57:13.919Z,4.70
2018-02-04T23:59:44.169Z,5.50
